createdAt,value
2018-12-20T00:01:06.402Z,96.53
2018-12-20T00:06:10.131Z,96.81
2018-12-20T00:11:13.539Z,96.49
2018-12-20T00:16:17.084Z,96.94
2018-12-20T00:21:20.648Z,96.93
2018-12-20T00:26:24.161Z,97.01
2018-12-20T00:31:27.909Z,96.84
2018-12-20T00:36:31.458Z,96.19
2018-12-20T00:41:34.979Z,97.10
2018-12-20T00:46:38.652Z,96.63
2018-12-20T00:51:42.349Z,97.02
2018-12-20T00:56:45.884Z,96.70
2018-12-20T01:01:49.377Z,96.81
2018-12-20T01:06:52.957Z,97.18
2018-12-20T01:11:56.516Z,97.06
2018-12-20T01:17:00.014Z,97.16
2018-12-20T01:22:03.634Z,97.01
2018-12-20T01:27:07.302Z,97.29
2018-12-20T01:32:10.888Z,97.78
2018-12-20T01:37:14.460Z,97.61
2018-12-20T01:42:17.881Z,97.67
2018-12-20T01:47:21.647Z,97.53
2018-12-20T01:52:25.346Z,97.68
2018-12-20T01:57:29.004Z,98.03
2018-12-20T02:02:32.488Z,97.74
2018-12-20T02:07:36.119Z,98.34
2018-12-20T02:12:39.754Z,98.33
2018-12-20T02:17:43.536Z,97.67
2018-12-20T02:22:47.112Z,98.05
2018-12-20T02:27:50.625Z,98.00
2018-12-20T02:32:54.397Z,97.71
2018-12-20T02:37:58.091Z,97.39
2018-12-20T02:43:01.801Z,97.91
2018-12-20T02:48:05.377Z,98.32
2018-12-20T02:53:09.240Z,98.40
2018-12-20T02:58:12.866Z,98.53
2018-12-20T03:03:16.586Z,98.66
2018-12-20T03:08:20.478Z,98.73
2018-12-20T03:13:24.366Z,98.22
2018-12-20T03:18:28.106Z,98.31
2018-12-20T03:23:31.805Z,99.00
2018-12-20T03:28:35.635Z,98.03
2018-12-20T03:33:39.245Z,98.49
2018-12-20T03:38:42.866Z,98.30
2018-12-20T03:43:46.789Z,98.49
2018-12-20T03:48:50.511Z,98.48
2018-12-20T03:53:54.022Z,98.42
2018-12-20T03:58:57.811Z,98.33
2018-12-20T04:04:01.762Z,98.28
2018-12-20T04:09:07.656Z,97.75
2018-12-20T04:14:11.156Z,98.01
2018-12-20T04:19:14.904Z,97.96
2018-12-20T04:24:18.669Z,98.06
2018-12-20T04:29:22.198Z,97.26
2018-12-20T04:34:25.775Z,97.86
2018-12-20T04:39:29.577Z,97.71
2018-12-20T04:44:32.989Z,97.86
2018-12-20T04:49:36.673Z,97.20
2018-12-20T04:54:40.229Z,97.31
2018-12-20T04:59:43.778Z,96.74
2018-12-20T05:04:47.440Z,97.59
2018-12-20T05:09:51.143Z,96.89
2018-12-20T05:14:54.879Z,96.71
2018-12-20T05:19:58.904Z,97.44
2018-12-20T05:25:02.380Z,96.34
2018-12-20T05:30:06.336Z,96.86
2018-12-20T05:35:10.182Z,96.73
2018-12-20T05:40:13.928Z,97.22
2018-12-20T05:45:17.564Z,96.88
2018-12-20T05:50:21.448Z,96.74
2018-12-20T05:55:25.111Z,97.22
2018-12-20T06:00:28.834Z,96.53
2018-12-20T06:05:32.425Z,96.71
2018-12-20T06:10:36.115Z,96.09
2018-12-20T06:15:41.453Z,95.48
2018-12-20T06:20:44.908Z,95.75
2018-12-20T06:25:48.443Z,96.11
2018-12-20T06:30:51.972Z,96.10
2018-12-20T06:35:55.472Z,94.89
2018-12-20T06:40:58.992Z,95.08
2018-12-20T06:46:02.503Z,94.95
2018-12-20T06:51:06.116Z,94.85
2018-12-20T06:56:09.540Z,95.28
2018-12-20T07:01:12.984Z,94.80
2018-12-20T07:06:16.404Z,94.53
2018-12-20T07:11:19.881Z,95.09
2018-12-20T07:16:29.256Z,94.13
2018-12-20T07:21:30.276Z,94.10
2018-12-20T07:26:33.667Z,93.54
2018-12-20T07:31:37.143Z,93.32
2018-12-20T07:36:40.544Z,93.38
2018-12-20T07:41:44.136Z,93.25
2018-12-20T07:46:47.820Z,93.41
2018-12-20T07:51:51.424Z,93.48
2018-12-20T07:56:54.920Z,92.69
2018-12-20T08:01:58.405Z,92.66
2018-12-20T08:07:01.862Z,91.87
2018-12-20T08:12:05.396Z,92.40
2018-12-20T08:17:08.875Z,91.44
2018-12-20T08:22:12.337Z,90.89
2018-12-20T08:27:15.849Z,90.42
2018-12-20T08:32:19.434Z,90.38
2018-12-20T08:37:23.198Z,91.41
2018-12-20T08:42:26.769Z,91.58
2018-12-20T08:47:30.567Z,91.90
2018-12-20T08:52:34.016Z,92.07
2018-12-20T08:57:37.772Z,92.42
2018-12-20T09:02:41.439Z,92.11
2018-12-20T09:07:44.892Z,91.85
2018-12-20T09:12:48.378Z,92.14
2018-12-20T09:17:51.824Z,92.72
2018-12-20T09:22:55.292Z,92.16
2018-12-20T09:27:58.787Z,91.88
2018-12-20T09:33:02.189Z,91.02
2018-12-20T09:38:05.808Z,91.78
2018-12-20T09:43:09.328Z,90.87
2018-12-20T09:48:12.832Z,91.90
2018-12-20T09:53:16.928Z,91.30
2018-12-20T09:58:20.329Z,90.59
2018-12-20T10:03:25.151Z,91.31
2018-12-20T10:08:28.727Z,91.48
2018-12-20T10:13:32.240Z,91.43
2018-12-20T10:18:35.738Z,90.91
2018-12-20T10:23:39.201Z,90.92
2018-12-20T10:28:42.777Z,90.40
2018-12-20T10:33:46.193Z,90.95
2018-12-20T10:38:49.837Z,91.14
2018-12-20T10:43:53.470Z,91.51
2018-12-20T10:48:56.905Z,90.55
2018-12-20T10:54:00.341Z,90.50
2018-12-20T10:59:03.906Z,89.39
2018-12-20T11:04:12.792Z,88.89
2018-12-20T11:10:21.617Z,88.67
2018-12-20T11:15:25.207Z,88.18
2018-12-20T11:20:29.612Z,86.75
2018-12-20T11:25:33.101Z,86.98
2018-12-20T11:30:36.519Z,86.94
2018-12-20T11:35:40.006Z,85.85
2018-12-20T11:40:43.416Z,85.63
2018-12-20T11:45:47.108Z,85.05
2018-12-20T11:50:50.592Z,83.82
2018-12-20T11:55:54.253Z,85.95
2018-12-20T12:00:57.844Z,84.61
2018-12-20T12:06:01.347Z,84.66
2018-12-20T12:12:07.467Z,84.65
2018-12-20T12:17:10.880Z,84.24
2018-12-20T12:22:14.375Z,84.40
2018-12-20T12:27:17.912Z,84.10
2018-12-20T12:32:21.560Z,84.19
2018-12-20T12:37:25.031Z,84.42
2018-12-20T12:42:28.524Z,84.10
2018-12-20T12:48:06.344Z,84.00
2018-12-20T12:53:09.788Z,84.63
2018-12-20T12:58:13.292Z,83.96
2018-12-20T13:03:16.710Z,83.58
2018-12-20T13:08:20.528Z,83.80
2018-12-20T13:13:24.091Z,83.13
2018-12-20T13:18:27.568Z,83.25
2018-12-20T13:23:31.116Z,82.90
2018-12-20T13:28:35.702Z,82.02
2018-12-20T13:33:39.384Z,81.93
2018-12-20T13:38:42.828Z,81.55
2018-12-20T13:43:46.289Z,81.64
2018-12-20T13:48:50.507Z,81.72
2018-12-20T13:53:54.049Z,81.83
2018-12-20T13:59:03.432Z,81.98
2018-12-20T14:04:03.094Z,82.83
2018-12-20T14:09:09.646Z,83.27
2018-12-20T14:14:13.138Z,84.40
2018-12-20T14:19:16.607Z,84.10
2018-12-20T14:24:20.310Z,84.64
2018-12-20T14:29:23.846Z,84.21
2018-12-20T14:34:27.501Z,84.38
2018-12-20T14:39:31.038Z,83.70
2018-12-20T14:44:34.780Z,83.64
2018-12-20T14:49:38.544Z,83.75
2018-12-20T14:54:42.088Z,83.77
2018-12-20T14:59:45.921Z,83.67
2018-12-20T15:04:49.417Z,84.10
2018-12-20T15:09:52.894Z,84.57
2018-12-20T15:14:56.450Z,84.02
2018-12-20T15:19:59.947Z,84.13
2018-12-20T15:25:03.578Z,85.00
2018-12-20T15:30:08.592Z,84.71
2018-12-20T15:35:12.096Z,85.11
2018-12-20T15:40:15.692Z,84.71
2018-12-20T15:45:19.229Z,84.93
2018-12-20T15:50:22.776Z,84.88
2018-12-20T15:55:26.324Z,85.36
2018-12-20T16:00:29.764Z,84.76
2018-12-20T16:05:33.273Z,85.43
2018-12-20T16:10:37.276Z,84.57
2018-12-20T16:15:40.827Z,84.63
2018-12-20T16:20:44.424Z,85.38
2018-12-20T16:25:47.943Z,85.07
2018-12-20T16:30:51.380Z,84.84
2018-12-20T16:35:54.920Z,85.03
2018-12-20T16:40:58.383Z,85.04
2018-12-20T16:46:01.992Z,84.62
2018-12-20T16:51:05.527Z,84.67
2018-12-20T16:56:09.236Z,85.03
2018-12-20T17:01:14.808Z,84.86
2018-12-20T17:06:18.460Z,84.78
2018-12-20T17:11:21.987Z,84.72
2018-12-20T17:16:25.468Z,84.54
2018-12-20T17:21:28.967Z,84.58
2018-12-20T17:26:32.569Z,84.87
2018-12-20T17:31:35.979Z,84.83
2018-12-20T17:36:39.516Z,85.43
2018-12-20T17:41:43.028Z,85.84
2018-12-20T17:46:46.441Z,86.32
2018-12-20T17:51:49.955Z,86.61
2018-12-20T17:56:53.644Z,86.07
2018-12-20T18:01:57.089Z,86.12
2018-12-20T18:07:00.520Z,86.19
2018-12-20T18:12:04.108Z,86.00
2018-12-20T18:17:07.592Z,85.65
2018-12-20T18:22:11.028Z,86.12
2018-12-20T18:27:14.473Z,86.07
2018-12-20T18:32:18.057Z,86.07
2018-12-20T18:37:21.473Z,86.08
2018-12-20T18:42:24.991Z,86.27
2018-12-20T18:47:28.584Z,86.49
2018-12-20T18:52:32.105Z,86.55
2018-12-20T18:57:35.749Z,86.83
2018-12-20T19:02:39.279Z,86.49
2018-12-20T19:07:42.696Z,86.74
2018-12-20T19:12:46.109Z,86.39
2018-12-20T19:17:49.527Z,87.10
2018-12-20T19:22:53.061Z,86.42
2018-12-20T19:27:56.472Z,87.13
2018-12-20T19:32:59.892Z,87.01
2018-12-20T19:38:03.500Z,87.10
2018-12-20T19:43:06.940Z,86.98
2018-12-20T19:48:10.480Z,86.94
2018-12-20T19:53:13.976Z,86.76
2018-12-20T19:58:17.400Z,86.54
2018-12-20T20:03:20.984Z,86.43
2018-12-20T20:08:24.448Z,86.04
2018-12-20T20:13:30.927Z,85.60
2018-12-20T20:18:33.392Z,85.32
2018-12-20T20:23:36.904Z,85.48
2018-12-20T20:28:40.502Z,85.05
2018-12-20T20:33:44.069Z,85.17
2018-12-20T20:38:47.653Z,85.43
2018-12-20T20:43:51.194Z,85.89
2018-12-20T20:48:54.776Z,85.29
2018-12-20T20:53:58.368Z,85.03
2018-12-20T20:59:01.861Z,85.29
2018-12-20T21:04:06.181Z,85.13
2018-12-20T21:09:09.664Z,85.31
2018-12-20T21:14:13.088Z,84.70
2018-12-20T21:19:16.500Z,84.85
2018-12-20T21:24:20.177Z,84.58
2018-12-20T21:29:23.639Z,84.79
2018-12-20T21:34:27.120Z,84.61
2018-12-20T21:39:35.701Z,84.39
2018-12-20T21:44:39.207Z,84.59
2018-12-20T21:49:42.825Z,83.97
2018-12-20T21:54:46.358Z,84.14
2018-12-20T21:59:49.872Z,84.12
2018-12-20T22:04:53.340Z,83.84
2018-12-20T22:09:57.065Z,83.53
2018-12-20T22:15:00.619Z,83.39
2018-12-20T22:20:04.689Z,84.10
2018-12-20T22:25:08.387Z,84.33
2018-12-20T22:30:11.840Z,83.91
2018-12-20T22:35:15.481Z,83.83
2018-12-20T22:40:18.976Z,83.66
2018-12-20T22:45:22.524Z,83.21
2018-12-20T22:50:27.008Z,83.32
2018-12-20T22:55:30.527Z,83.47
2018-12-20T23:00:34.072Z,83.28
2018-12-20T23:05:37.642Z,83.58
2018-12-20T23:10:41.182Z,82.74
2018-12-20T23:15:44.695Z,83.09
2018-12-20T23:20:48.110Z,83.60
2018-12-20T23:25:51.624Z,82.86
2018-12-20T23:30:55.052Z,83.59
2018-12-20T23:35:58.555Z,82.85
2018-12-20T23:41:01.969Z,83.08
2018-12-20T23:46:05.531Z,83.22
2018-12-20T23:51:13.559Z,82.61
2018-12-20T23:56:14.488Z,82.54
